sensor_id;sensor_type;location;lat;lon;timestamp;noise_LAeq;noise_LA_min;noise_LA_max;noise_LA01;noise_LA95
72028;Laerm;59781;52.090;5.030;2023-03-07T00:01:36;41.79;38.94;48.14;;
72028;Laerm;59781;52.090;5.030;2023-03-07T00:04:02;41.85;38.58;48.95;;
72028;Laerm;59781;52.090;5.030;2023-03-07T00:06:29;42.36;38.90;52.20;;
72028;Laerm;59781;52.090;5.030;2023-03-07T00:08:59;40.99;38.54;46.44;;
72028;Laerm;59781;52.090;5.030;2023-03-07T00:11:26;41.93;39.03;45.39;;
72028;Laerm;59781;52.090;5.030;2023-03-07T00:13:53;41.50;38.89;45.59;;
72028;Laerm;59781;52.090;5.030;2023-03-07T00:16:22;41.78;38.88;49.91;;
72028;Laerm;59781;52.090;5.030;2023-03-07T00:18:48;42.03;38.71;50.80;;
72028;Laerm;59781;52.090;5.030;2023-03-07T00:21:18;41.08;38.14;50.68;;
72028;Laerm;59781;52.090;5.030;2023-03-07T00:23:46;42.31;38.37;48.41;;
72028;Laerm;59781;52.090;5.030;2023-03-07T00:26:16;41.56;38.91;47.31;;
72028;Laerm;59781;52.090;5.030;2023-03-07T00:28:45;41.58;38.38;47.95;;
72028;Laerm;59781;52.090;5.030;2023-03-07T00:31:11;41.18;37.94;46.76;;
72028;Laerm;59781;52.090;5.030;2023-03-07T00:33:38;41.62;37.34;49.15;;
72028;Laerm;59781;52.090;5.030;2023-03-07T00:36:16;40.39;36.67;45.88;;
72028;Laerm;59781;52.090;5.030;2023-03-07T00:38:43;41.09;37.98;45.16;;
72028;Laerm;59781;52.090;5.030;2023-03-07T00:41:18;40.81;38.39;46.58;;
72028;Laerm;59781;52.090;5.030;2023-03-07T00:43:44;41.14;38.36;48.46;;
72028;Laerm;59781;52.090;5.030;2023-03-07T00:46:13;41.09;37.98;54.31;;
72028;Laerm;59781;52.090;5.030;2023-03-07T00:48:39;41.45;37.90;47.44;;
72028;Laerm;59781;52.090;5.030;2023-03-07T00:51:10;40.43;37.59;49.29;;
72028;Laerm;59781;52.090;5.030;2023-03-07T00:53:37;41.28;37.67;69.70;;
72028;Laerm;59781;52.090;5.030;2023-03-07T00:58:35;40.60;37.62;48.26;;
72028;Laerm;59781;52.090;5.030;2023-03-07T01:01:04;40.55;37.84;55.97;;
72028;Laerm;59781;52.090;5.030;2023-03-07T01:03:33;40.62;37.70;44.90;;
72028;Laerm;59781;52.090;5.030;2023-03-07T01:06:05;40.15;37.79;51.37;;
72028;Laerm;59781;52.090;5.030;2023-03-07T01:08:32;40.25;37.61;48.40;;
72028;Laerm;59781;52.090;5.030;2023-03-07T01:11:02;47.54;41.15;72.50;;
72028;Laerm;59781;52.090;5.030;2023-03-07T01:13:29;44.64;39.28;72.20;;
72028;Laerm;59781;52.090;5.030;2023-03-07T01:16:26;41.40;38.12;65.64;;
72028;Laerm;59781;52.090;5.030;2023-03-07T01:18:57;39.94;37.45;54.24;;
72028;Laerm;59781;52.090;5.030;2023-03-07T01:21:38;48.00;37.60;83.40;;
72028;Laerm;59781;52.090;5.030;2023-03-07T01:24:06;40.93;37.65;51.39;;
72028;Laerm;59781;52.090;5.030;2023-03-07T01:26:33;40.09;37.70;48.14;;
72028;Laerm;59781;52.090;5.030;2023-03-07T01:29:03;41.38;38.16;48.14;;
72028;Laerm;59781;52.090;5.030;2023-03-07T01:31:33;41.96;38.09;69.47;;
72028;Laerm;59781;52.090;5.030;2023-03-07T01:34:00;40.49;37.80;53.76;;
72028;Laerm;59781;52.090;5.030;2023-03-07T01:36:32;40.06;37.78;47.87;;
72028;Laerm;59781;52.090;5.030;2023-03-07T01:39:16;40.48;37.39;45.34;;
72028;Laerm;59781;52.090;5.030;2023-03-07T01:41:47;40.73;37.89;46.68;;
72028;Laerm;59781;52.090;5.030;2023-03-07T01:44:23;41.23;37.79;51.78;;
72028;Laerm;59781;52.090;5.030;2023-03-07T01:46:59;40.62;37.74;48.66;;
72028;Laerm;59781;52.090;5.030;2023-03-07T01:49:41;41.50;37.88;56.45;;
72028;Laerm;59781;52.090;5.030;2023-03-07T01:54:50;40.58;37.86;48.01;;
72028;Laerm;59781;52.090;5.030;2023-03-07T01:57:31;40.09;37.45;46.67;;
72028;Laerm;59781;52.090;5.030;2023-03-07T02:00:05;40.23;37.90;45.04;;
72028;Laerm;59781;52.090;5.030;2023-03-07T02:02:43;40.67;37.90;46.54;;
72028;Laerm;59781;52.090;5.030;2023-03-07T02:05:32;40.84;38.39;44.86;;
72028;Laerm;59781;52.090;5.030;2023-03-07T02:08:01;41.28;37.81;47.74;;
72028;Laerm;59781;52.090;5.030;2023-03-07T02:10:32;41.78;38.08;49.11;;
72028;Laerm;59781;52.090;5.030;2023-03-07T02:12:59;40.26;37.47;44.97;;
72028;Laerm;59781;52.090;5.030;2023-03-07T02:15:25;40.14;37.80;47.05;;
72028;Laerm;59781;52.090;5.030;2023-03-07T02:17:52;40.38;38.00;48.94;;
72028;Laerm;59781;52.090;5.030;2023-03-07T02:26:50;40.60;37.90;50.40;;
72028;Laerm;59781;52.090;5.030;2023-03-07T02:29:19;41.21;38.28;45.76;;
72028;Laerm;59781;52.090;5.030;2023-03-07T02:31:46;41.60;38.30;47.77;;
72028;Laerm;59781;52.090;5.030;2023-03-07T02:34:28;40.40;37.56;45.35;;
72028;Laerm;59781;52.090;5.030;2023-03-07T02:37:30;41.40;38.06;46.48;;
72028;Laerm;59781;52.090;5.030;2023-03-07T02:40:04;40.35;37.93;44.05;;
72028;Laerm;59781;52.090;5.030;2023-03-07T02:42:36;40.51;38.13;44.74;;
72028;Laerm;59781;52.090;5.030;2023-03-07T02:45:15;40.93;38.04;45.75;;
72028;Laerm;59781;52.090;5.030;2023-03-07T02:47:44;40.89;37.61;48.75;;
72028;Laerm;59781;52.090;5.030;2023-03-07T02:50:14;41.99;38.42;47.92;;
72028;Laerm;59781;52.090;5.030;2023-03-07T02:52:43;40.97;38.21;46.03;;
72028;Laerm;59781;52.090;5.030;2023-03-07T02:55:10;40.80;38.18;44.70;;
72028;Laerm;59781;52.090;5.030;2023-03-07T02:57:40;40.50;37.82;47.06;;
72028;Laerm;59781;52.090;5.030;2023-03-07T03:00:07;41.05;38.01;46.00;;
72028;Laerm;59781;52.090;5.030;2023-03-07T03:02:35;40.50;38.08;44.69;;
72028;Laerm;59781;52.090;5.030;2023-03-07T03:05:00;40.21;37.59;44.79;;
72028;Laerm;59781;52.090;5.030;2023-03-07T03:07:26;40.88;37.59;47.15;;
72028;Laerm;59781;52.090;5.030;2023-03-07T03:09:52;40.63;37.88;43.59;;
72028;Laerm;59781;52.090;5.030;2023-03-07T03:12:18;40.46;38.09;44.05;;
72028;Laerm;59781;52.090;5.030;2023-03-07T03:14:44;40.31;38.02;43.76;;
72028;Laerm;59781;52.090;5.030;2023-03-07T03:17:10;40.54;37.85;44.96;;
72028;Laerm;59781;52.090;5.030;2023-03-07T03:19:36;41.01;38.49;45.94;;
72028;Laerm;59781;52.090;5.030;2023-03-07T03:22:02;41.63;38.77;46.28;;
72028;Laerm;59781;52.090;5.030;2023-03-07T03:24:32;41.09;38.24;47.19;;
72028;Laerm;59781;52.090;5.030;2023-03-07T03:26:58;40.71;38.20;43.97;;
72028;Laerm;59781;52.090;5.030;2023-03-07T03:29:25;41.29;38.12;49.42;;
72028;Laerm;59781;52.090;5.030;2023-03-07T03:31:54;41.08;37.79;46.81;;
72028;Laerm;59781;52.090;5.030;2023-03-07T03:34:20;41.31;38.95;44.93;;
72028;Laerm;59781;52.090;5.030;2023-03-07T03:36:48;41.61;38.31;47.29;;
72028;Laerm;59781;52.090;5.030;2023-03-07T03:39:14;42.50;38.91;48.75;;
72028;Laerm;59781;52.090;5.030;2023-03-07T03:41:44;42.00;38.67;53.10;;
72028;Laerm;59781;52.090;5.030;2023-03-07T03:44:10;41.25;38.35;48.53;;
72028;Laerm;59781;52.090;5.030;2023-03-07T03:46:36;41.65;38.12;47.21;;
72028;Laerm;59781;52.090;5.030;2023-03-07T03:49:03;41.70;38.84;46.81;;
72028;Laerm;59781;52.090;5.030;2023-03-07T03:51:31;42.37;38.85;48.15;;
72028;Laerm;59781;52.090;5.030;2023-03-07T03:53:57;41.60;38.79;53.55;;
72028;Laerm;59781;52.090;5.030;2023-03-07T03:56:26;46.73;39.14;63.30;;
72028;Laerm;59781;52.090;5.030;2023-03-07T03:58:55;44.17;39.86;52.31;;
72028;Laerm;59781;52.090;5.030;2023-03-07T04:01:26;42.37;39.18;57.43;;
72028;Laerm;59781;52.090;5.030;2023-03-07T04:03:53;42.02;39.40;55.50;;
72028;Laerm;59781;52.090;5.030;2023-03-07T04:06:27;41.99;38.75;56.68;;
72028;Laerm;59781;52.090;5.030;2023-03-07T04:08:55;43.73;39.97;66.80;;
72028;Laerm;59781;52.090;5.030;2023-03-07T04:11:23;44.71;40.04;64.86;;
72028;Laerm;59781;52.090;5.030;2023-03-07T04:13:50;43.20;39.82;54.96;;
72028;Laerm;59781;52.090;5.030;2023-03-07T04:16:17;43.67;39.75;63.33;;
72028;Laerm;59781;52.090;5.030;2023-03-07T04:18:43;44.44;40.22;64.71;;
72028;Laerm;59781;52.090;5.030;2023-03-07T04:21:09;47.88;40.88;72.60;;
72028;Laerm;59781;52.090;5.030;2023-03-07T04:23:39;46.65;41.70;69.61;;
72028;Laerm;59781;52.090;5.030;2023-03-07T04:26:08;45.88;40.10;72.08;;
72028;Laerm;59781;52.090;5.030;2023-03-07T04:28:41;43.08;39.04;62.16;;
72028;Laerm;59781;52.090;5.030;2023-03-07T04:31:19;45.63;40.02;63.45;;
72028;Laerm;59781;52.090;5.030;2023-03-07T04:33:47;43.19;39.51;69.94;;
72028;Laerm;59781;52.090;5.030;2023-03-07T04:36:15;45.44;39.23;77.22;;
72028;Laerm;59781;52.090;5.030;2023-03-07T04:38:41;42.69;38.79;56.93;;
72028;Laerm;59781;52.090;5.030;2023-03-07T04:41:18;41.70;38.82;62.91;;
72028;Laerm;59781;52.090;5.030;2023-03-07T04:43:46;44.33;38.73;75.99;;
72028;Laerm;59781;52.090;5.030;2023-03-07T04:46:15;41.52;38.91;45.91;;
72028;Laerm;59781;52.090;5.030;2023-03-07T04:48:41;41.33;38.91;51.81;;
72028;Laerm;59781;52.090;5.030;2023-03-07T04:51:07;42.69;39.07;50.82;;
72028;Laerm;59781;52.090;5.030;2023-03-07T04:53:33;42.54;38.14;47.60;;
72028;Laerm;59781;52.090;5.030;2023-03-07T04:56:06;42.23;38.33;54.34;;
72028;Laerm;59781;52.090;5.030;2023-03-07T04:58:33;41.46;38.65;48.33;;
72028;Laerm;59781;52.090;5.030;2023-03-07T05:01:02;43.97;39.95;60.65;;
72028;Laerm;59781;52.090;5.030;2023-03-07T05:03:29;42.81;40.14;50.91;;
72028;Laerm;59781;52.090;5.030;2023-03-07T05:06:00;43.21;40.07;63.96;;
72028;Laerm;59781;52.090;5.030;2023-03-07T05:08:26;42.97;40.16;51.75;;
72028;Laerm;59781;52.090;5.030;2023-03-07T05:10:53;43.55;40.61;52.51;;
72028;Laerm;59781;52.090;5.030;2023-03-07T05:13:19;45.14;40.80;73.93;;
72028;Laerm;59781;52.090;5.030;2023-03-07T05:15:53;43.68;40.43;52.32;;
72028;Laerm;59781;52.090;5.030;2023-03-07T05:18:21;42.69;39.98;54.47;;
72028;Laerm;59781;52.090;5.030;2023-03-07T05:20:48;42.93;39.35;55.94;;
72028;Laerm;59781;52.090;5.030;2023-03-07T05:23:15;43.99;40.03;52.55;;
72028;Laerm;59781;52.090;5.030;2023-03-07T05:25:41;41.43;38.92;49.52;;
72028;Laerm;59781;52.090;5.030;2023-03-07T05:28:07;42.40;38.42;55.14;;
72028;Laerm;59781;52.090;5.030;2023-03-07T05:30:33;42.89;39.41;53.98;;
72028;Laerm;59781;52.090;5.030;2023-03-07T05:32:59;43.42;39.77;64.57;;
72028;Laerm;59781;52.090;5.030;2023-03-07T05:35:25;41.68;38.84;54.58;;
72028;Laerm;59781;52.090;5.030;2023-03-07T05:37:53;43.74;39.88;55.38;;
72028;Laerm;59781;52.090;5.030;2023-03-07T05:40:19;44.20;41.27;50.93;;
72028;Laerm;59781;52.090;5.030;2023-03-07T05:42:47;43.14;40.30;47.09;;
72028;Laerm;59781;52.090;5.030;2023-03-07T05:45:13;44.86;41.39;58.96;;
72028;Laerm;59781;52.090;5.030;2023-03-07T05:47:40;44.66;41.02;53.18;;
72028;Laerm;59781;52.090;5.030;2023-03-07T05:50:08;43.90;40.48;52.96;;
72028;Laerm;59781;52.090;5.030;2023-03-07T05:52:35;44.52;40.82;65.59;;
72028;Laerm;59781;52.090;5.030;2023-03-07T05:55:01;44.05;40.97;51.43;;
72028;Laerm;59781;52.090;5.030;2023-03-07T05:57:26;46.10;41.01;63.74;;
72028;Laerm;59781;52.090;5.030;2023-03-07T05:59:52;45.30;41.18;71.53;;
72028;Laerm;59781;52.090;5.030;2023-03-07T06:02:18;44.83;41.56;54.22;;
72028;Laerm;59781;52.090;5.030;2023-03-07T06:04:43;45.21;41.47;66.97;;
72028;Laerm;59781;52.090;5.030;2023-03-07T06:07:11;46.56;40.94;77.83;;
72028;Laerm;59781;52.090;5.030;2023-03-07T06:09:37;43.93;40.30;57.63;;
72028;Laerm;59781;52.090;5.030;2023-03-07T06:12:03;43.73;40.33;56.57;;
72028;Laerm;59781;52.090;5.030;2023-03-07T06:14:31;46.26;40.10;76.32;;
72028;Laerm;59781;52.090;5.030;2023-03-07T06:16:57;43.86;40.30;62.21;;
72028;Laerm;59781;52.090;5.030;2023-03-07T06:19:23;44.45;40.60;56.99;;
72028;Laerm;59781;52.090;5.030;2023-03-07T06:21:50;44.88;41.61;64.13;;
72028;Laerm;59781;52.090;5.030;2023-03-07T06:24:16;45.40;41.56;71.00;;
72028;Laerm;59781;52.090;5.030;2023-03-07T06:26:42;45.30;41.32;54.57;;
72028;Laerm;59781;52.090;5.030;2023-03-07T06:29:08;45.45;41.33;53.04;;
72028;Laerm;59781;52.090;5.030;2023-03-07T06:31:34;46.55;42.66;65.05;;
72028;Laerm;59781;52.090;5.030;2023-03-07T06:33:59;46.43;42.50;57.79;;
72028;Laerm;59781;52.090;5.030;2023-03-07T06:36:26;47.81;43.60;72.72;;
72028;Laerm;59781;52.090;5.030;2023-03-07T06:38:55;48.33;43.61;77.07;;
72028;Laerm;59781;52.090;5.030;2023-03-07T06:41:22;46.96;43.59;70.92;;
72028;Laerm;59781;52.090;5.030;2023-03-07T06:43:51;47.12;42.56;61.83;;
72028;Laerm;59781;52.090;5.030;2023-03-07T06:46:19;48.62;43.24;79.04;;
72028;Laerm;59781;52.090;5.030;2023-03-07T06:48:45;48.13;42.80;76.28;;
72028;Laerm;59781;52.090;5.030;2023-03-07T06:51:15;46.94;43.40;53.82;;
72028;Laerm;59781;52.090;5.030;2023-03-07T06:53:42;47.75;43.90;55.42;;
72028;Laerm;59781;52.090;5.030;2023-03-07T06:56:09;47.01;43.11;68.67;;
72028;Laerm;59781;52.090;5.030;2023-03-07T06:58:35;46.84;43.30;62.82;;
72028;Laerm;59781;52.090;5.030;2023-03-07T07:01:01;47.21;42.80;65.00;;
72028;Laerm;59781;52.090;5.030;2023-03-07T07:03:28;48.72;43.02;65.59;;
72028;Laerm;59781;52.090;5.030;2023-03-07T07:05:53;47.30;42.80;61.41;;
72028;Laerm;59781;52.090;5.030;2023-03-07T07:08:19;47.60;42.44;77.73;;
72028;Laerm;59781;52.090;5.030;2023-03-07T07:10:45;46.75;42.54;70.57;;
72028;Laerm;59781;52.090;5.030;2023-03-07T07:13:11;45.67;42.39;61.92;;
72028;Laerm;59781;52.090;5.030;2023-03-07T07:15:38;46.68;43.22;66.76;;
72028;Laerm;59781;52.090;5.030;2023-03-07T07:18:04;46.20;42.66;60.07;;
72028;Laerm;59781;52.090;5.030;2023-03-07T07:20:32;45.88;41.87;66.03;;
72028;Laerm;59781;52.090;5.030;2023-03-07T07:22:58;46.18;42.50;56.06;;
72028;Laerm;59781;52.090;5.030;2023-03-07T07:25:24;45.96;42.46;54.13;;
72028;Laerm;59781;52.090;5.030;2023-03-07T07:27:50;46.36;42.13;71.20;;
72028;Laerm;59781;52.090;5.030;2023-03-07T07:30:16;47.22;41.60;72.69;;
72028;Laerm;59781;52.090;5.030;2023-03-07T07:32:41;50.06;41.76;78.55;;
72028;Laerm;59781;52.090;5.030;2023-03-07T07:35:12;47.07;42.46;66.72;;
72028;Laerm;59781;52.090;5.030;2023-03-07T07:37:38;46.44;41.76;67.56;;
72028;Laerm;59781;52.090;5.030;2023-03-07T07:40:05;47.08;42.25;60.20;;
72028;Laerm;59781;52.090;5.030;2023-03-07T07:42:33;48.05;42.35;77.38;;
72028;Laerm;59781;52.090;5.030;2023-03-07T07:45:17;46.88;43.53;58.34;;
72028;Laerm;59781;52.090;5.030;2023-03-07T07:47:46;47.22;41.84;61.18;;
72028;Laerm;59781;52.090;5.030;2023-03-07T07:50:12;47.46;43.11;59.82;;
72028;Laerm;59781;52.090;5.030;2023-03-07T07:52:38;47.55;43.61;66.04;;
72028;Laerm;59781;52.090;5.030;2023-03-07T07:55:04;48.43;42.03;57.62;;
72028;Laerm;59781;52.090;5.030;2023-03-07T07:57:30;49.05;43.54;58.32;;
72028;Laerm;59781;52.090;5.030;2023-03-07T07:59:57;46.89;42.27;64.56;;
72028;Laerm;59781;52.090;5.030;2023-03-07T08:02:23;46.73;42.71;55.89;;
72028;Laerm;59781;52.090;5.030;2023-03-07T08:04:49;48.23;42.82;64.17;;
72028;Laerm;59781;52.090;5.030;2023-03-07T08:07:15;47.25;42.88;59.16;;
72028;Laerm;59781;52.090;5.030;2023-03-07T08:09:41;46.15;42.10;59.08;;
72028;Laerm;59781;52.090;5.030;2023-03-07T08:12:10;48.66;42.94;65.52;;
72028;Laerm;59781;52.090;5.030;2023-03-07T08:14:38;47.71;43.48;60.85;;
72028;Laerm;59781;52.090;5.030;2023-03-07T08:17:03;47.95;43.23;60.76;;
72028;Laerm;59781;52.090;5.030;2023-03-07T08:19:29;48.28;42.49;56.45;;
72028;Laerm;59781;52.090;5.030;2023-03-07T08:21:55;52.56;43.96;62.05;;
72028;Laerm;59781;52.090;5.030;2023-03-07T08:24:21;53.38;42.84;82.73;;
72028;Laerm;59781;52.090;5.030;2023-03-07T08:26:46;48.21;43.87;60.18;;
72028;Laerm;59781;52.090;5.030;2023-03-07T08:29:12;51.23;43.95;64.34;;
72028;Laerm;59781;52.090;5.030;2023-03-07T08:31:38;47.81;44.00;75.74;;
72028;Laerm;59781;52.090;5.030;2023-03-07T08:34:04;47.77;43.88;63.01;;
72028;Laerm;59781;52.090;5.030;2023-03-07T08:36:29;48.17;43.90;56.58;;
72028;Laerm;59781;52.090;5.030;2023-03-07T08:38:55;47.76;43.60;54.27;;
72028;Laerm;59781;52.090;5.030;2023-03-07T08:41:22;46.80;42.62;58.84;;
72028;Laerm;59781;52.090;5.030;2023-03-07T08:43:48;47.79;43.50;61.51;;
72028;Laerm;59781;52.090;5.030;2023-03-07T08:46:14;47.43;43.00;62.04;;
72028;Laerm;59781;52.090;5.030;2023-03-07T08:48:39;47.81;43.52;61.81;;
72028;Laerm;59781;52.090;5.030;2023-03-07T08:51:09;46.96;43.13;58.97;;
72028;Laerm;59781;52.090;5.030;2023-03-07T08:53:36;47.74;43.83;62.79;;
72028;Laerm;59781;52.090;5.030;2023-03-07T08:56:16;47.22;42.87;62.64;;
72028;Laerm;59781;52.090;5.030;2023-03-07T08:58:43;48.52;43.55;61.69;;
72028;Laerm;59781;52.090;5.030;2023-03-07T09:01:10;47.04;41.61;55.56;;
72028;Laerm;59781;52.090;5.030;2023-03-07T09:03:38;46.52;42.26;64.20;;
72028;Laerm;59781;52.090;5.030;2023-03-07T09:06:04;46.24;42.31;57.46;;
72028;Laerm;59781;52.090;5.030;2023-03-07T09:08:31;46.73;42.40;58.02;;
72028;Laerm;59781;52.090;5.030;2023-03-07T09:11:01;46.06;41.76;61.79;;
72028;Laerm;59781;52.090;5.030;2023-03-07T09:13:30;44.74;40.79;50.94;;
72028;Laerm;59781;52.090;5.030;2023-03-07T09:15:55;44.60;40.82;57.30;;
72028;Laerm;59781;52.090;5.030;2023-03-07T09:18:21;44.63;40.67;56.25;;
72028;Laerm;59781;52.090;5.030;2023-03-07T09:20:47;45.95;41.56;55.63;;
72028;Laerm;59781;52.090;5.030;2023-03-07T09:23:13;44.80;40.95;52.45;;
72028;Laerm;59781;52.090;5.030;2023-03-07T09:25:38;45.55;41.34;51.56;;
72028;Laerm;59781;52.090;5.030;2023-03-07T09:28:05;47.25;41.98;63.49;;
72028;Laerm;59781;52.090;5.030;2023-03-07T09:30:31;45.64;42.03;59.00;;
72028;Laerm;59781;52.090;5.030;2023-03-07T09:32:57;55.76;42.42;70.98;;
72028;Laerm;59781;52.090;5.030;2023-03-07T09:35:24;45.21;41.08;60.15;;
72028;Laerm;59781;52.090;5.030;2023-03-07T09:37:50;45.18;41.46;53.75;;
72028;Laerm;59781;52.090;5.030;2023-03-07T09:40:21;45.62;41.04;52.87;;
72028;Laerm;59781;52.090;5.030;2023-03-07T09:43:09;44.96;41.16;63.01;;
72028;Laerm;59781;52.090;5.030;2023-03-07T09:49:06;49.75;42.06;69.71;;
72028;Laerm;59781;52.090;5.030;2023-03-07T09:51:44;45.66;41.54;57.51;;
72028;Laerm;59781;52.090;5.030;2023-03-07T09:54:22;44.78;41.34;55.33;;
72028;Laerm;59781;52.090;5.030;2023-03-07T09:56:57;46.54;41.31;59.38;;
72028;Laerm;59781;52.090;5.030;2023-03-07T09:59:37;45.75;41.86;61.41;;
72028;Laerm;59781;52.090;5.030;2023-03-07T10:07:46;46.19;41.34;55.66;;
72028;Laerm;59781;52.090;5.030;2023-03-07T10:10:26;45.14;40.78;59.71;;
72028;Laerm;59781;52.090;5.030;2023-03-07T10:13:24;45.36;41.07;56.41;;
72028;Laerm;59781;52.090;5.030;2023-03-07T10:16:09;46.06;41.34;65.13;;
72028;Laerm;59781;52.090;5.030;2023-03-07T10:24:50;46.11;42.25;62.58;;
72028;Laerm;59781;52.090;5.030;2023-03-07T10:27:27;45.48;41.04;56.91;;
72028;Laerm;59781;52.090;5.030;2023-03-07T10:29:58;46.22;40.51;56.47;;
72028;Laerm;59781;52.090;5.030;2023-03-07T10:32:36;48.76;41.50;61.78;;
72028;Laerm;59781;52.090;5.030;2023-03-07T10:35:20;47.35;41.21;75.49;;
72028;Laerm;59781;52.090;5.030;2023-03-07T10:40:27;45.78;41.25;59.27;;
72028;Laerm;59781;52.090;5.030;2023-03-07T10:42:57;47.12;41.48;74.47;;
72028;Laerm;59781;52.090;5.030;2023-03-07T10:45:28;46.36;42.74;57.92;;
72028;Laerm;59781;52.090;5.030;2023-03-07T10:48:04;47.84;42.12;75.58;;
72028;Laerm;59781;52.090;5.030;2023-03-07T10:50:45;50.90;42.05;72.20;;
72028;Laerm;59781;52.090;5.030;2023-03-07T10:53:35;46.61;41.04;73.39;;
72028;Laerm;59781;52.090;5.030;2023-03-07T10:56:17;46.12;42.14;59.39;;
72028;Laerm;59781;52.090;5.030;2023-03-07T10:59:07;46.23;41.57;71.55;;
72028;Laerm;59781;52.090;5.030;2023-03-07T11:01:37;46.50;40.87;59.06;;
72028;Laerm;59781;52.090;5.030;2023-03-07T11:04:23;45.48;41.95;59.28;;
72028;Laerm;59781;52.090;5.030;2023-03-07T11:06:56;47.56;42.17;75.46;;
72028;Laerm;59781;52.090;5.030;2023-03-07T11:09:29;46.51;41.40;69.60;;
72028;Laerm;59781;52.090;5.030;2023-03-07T11:14:46;47.43;41.17;75.11;;
72028;Laerm;59781;52.090;5.030;2023-03-07T11:17:43;46.08;40.90;64.58;;
72028;Laerm;59781;52.090;5.030;2023-03-07T11:20:48;48.01;39.96;65.60;;
72028;Laerm;59781;52.090;5.030;2023-03-07T11:23:24;46.76;42.43;65.11;;
72028;Laerm;59781;52.090;5.030;2023-03-07T11:25:54;46.46;40.56;64.30;;
72028;Laerm;59781;52.090;5.030;2023-03-07T11:28:31;45.80;40.89;66.79;;
72028;Laerm;59781;52.090;5.030;2023-03-07T11:31:30;45.73;40.81;65.36;;
72028;Laerm;59781;52.090;5.030;2023-03-07T11:34:15;44.63;40.17;55.87;;
72028;Laerm;59781;52.090;5.030;2023-03-07T11:37:02;44.60;40.16;49.63;;
72028;Laerm;59781;52.090;5.030;2023-03-07T11:43:34;46.15;41.14;61.64;;
72028;Laerm;59781;52.090;5.030;2023-03-07T11:55:18;44.18;40.54;57.39;;
72028;Laerm;59781;52.090;5.030;2023-03-07T12:04:21;45.50;41.92;71.82;;
72028;Laerm;59781;52.090;5.030;2023-03-07T12:07:41;45.29;41.72;56.33;;
72028;Laerm;59781;52.090;5.030;2023-03-07T12:13:17;48.18;42.05;68.38;;
72028;Laerm;59781;52.090;5.030;2023-03-07T12:19:28;46.85;41.37;74.15;;
72028;Laerm;59781;52.090;5.030;2023-03-07T12:22:25;46.09;41.82;54.37;;
72028;Laerm;59781;52.090;5.030;2023-03-07T12:25:11;47.71;41.99;76.92;;
72028;Laerm;59781;52.090;5.030;2023-03-07T12:27:56;45.75;41.58;54.89;;
72028;Laerm;59781;52.090;5.030;2023-03-07T12:33:53;46.98;41.46;78.36;;
72028;Laerm;59781;52.090;5.030;2023-03-07T12:36:22;44.75;41.10;56.24;;
72028;Laerm;59781;52.090;5.030;2023-03-07T12:44:43;47.76;40.80;72.54;;
72028;Laerm;59781;52.090;5.030;2023-03-07T12:47:50;46.11;41.76;59.71;;
72028;Laerm;59781;52.090;5.030;2023-03-07T12:53:34;47.28;41.32;77.36;;
72028;Laerm;59781;52.090;5.030;2023-03-07T12:56:42;45.46;41.59;65.09;;
72028;Laerm;59781;52.090;5.030;2023-03-07T12:59:14;45.18;41.52;56.51;;
72028;Laerm;59781;52.090;5.030;2023-03-07T13:01:49;49.69;41.44;67.94;;
72028;Laerm;59781;52.090;5.030;2023-03-07T13:04:35;48.25;41.60;71.51;;
72028;Laerm;59781;52.090;5.030;2023-03-07T13:07:26;46.52;41.87;66.37;;
72028;Laerm;59781;52.090;5.030;2023-03-07T13:09:57;46.47;42.12;59.54;;
72028;Laerm;59781;52.090;5.030;2023-03-07T13:12:34;46.56;41.97;53.92;;
72028;Laerm;59781;52.090;5.030;2023-03-07T13:15:05;48.12;42.39;77.73;;
72028;Laerm;59781;52.090;5.030;2023-03-07T13:28:03;45.85;40.96;54.67;;
72028;Laerm;59781;52.090;5.030;2023-03-07T13:30:32;46.17;41.53;61.18;;
72028;Laerm;59781;52.090;5.030;2023-03-07T13:33:24;45.32;41.42;60.97;;
72028;Laerm;59781;52.090;5.030;2023-03-07T13:35:58;45.78;41.10;59.92;;
72028;Laerm;59781;52.090;5.030;2023-03-07T13:38:41;47.38;41.47;78.07;;
72028;Laerm;59781;52.090;5.030;2023-03-07T13:41:44;46.70;41.92;61.37;;
72028;Laerm;59781;52.090;5.030;2023-03-07T13:44:01;46.35;42.37;61.89;;
72028;Laerm;59781;52.090;5.030;2023-03-07T13:46:44;48.10;42.52;69.48;;
72028;Laerm;59781;52.090;5.030;2023-03-07T13:49:40;45.92;42.42;54.10;;
72028;Laerm;59781;52.090;5.030;2023-03-07T13:52:31;48.91;43.99;57.54;;
72028;Laerm;59781;52.090;5.030;2023-03-07T13:55:00;49.62;44.33;76.08;;
72028;Laerm;59781;52.090;5.030;2023-03-07T13:57:36;48.59;43.22;58.52;;
72028;Laerm;59781;52.090;5.030;2023-03-07T14:00:23;51.18;41.89;75.96;;
72028;Laerm;59781;52.090;5.030;2023-03-07T14:02:52;48.84;41.99;70.78;;
72028;Laerm;59781;52.090;5.030;2023-03-07T14:05:19;45.72;40.62;73.75;;
72028;Laerm;59781;52.090;5.030;2023-03-07T14:07:49;45.06;40.13;63.44;;
72028;Laerm;59781;52.090;5.030;2023-03-07T14:10:24;45.79;42.05;64.96;;
72028;Laerm;59781;52.090;5.030;2023-03-07T14:13:34;45.73;41.45;60.23;;
72028;Laerm;59781;52.090;5.030;2023-03-07T14:16:26;46.12;40.62;75.37;;
72028;Laerm;59781;52.090;5.030;2023-03-07T14:22:12;46.40;41.05;57.37;;
72028;Laerm;59781;52.090;5.030;2023-03-07T14:27:52;46.42;41.97;53.56;;
72028;Laerm;59781;52.090;5.030;2023-03-07T14:30:20;45.26;41.36;54.38;;
72028;Laerm;59781;52.090;5.030;2023-03-07T14:32:46;46.91;42.36;58.28;;
72028;Laerm;59781;52.090;5.030;2023-03-07T14:35:12;49.04;41.76;61.76;;
72028;Laerm;59781;52.090;5.030;2023-03-07T14:37:42;47.87;42.27;55.19;;
72028;Laerm;59781;52.090;5.030;2023-03-07T14:49:58;45.97;41.36;56.21;;
72028;Laerm;59781;52.090;5.030;2023-03-07T14:52:30;45.57;41.60;53.56;;
72028;Laerm;59781;52.090;5.030;2023-03-07T14:55:02;45.48;41.87;49.80;;
72028;Laerm;59781;52.090;5.030;2023-03-07T14:57:36;46.98;43.36;55.31;;
72028;Laerm;59781;52.090;5.030;2023-03-07T15:03:04;45.56;41.57;53.19;;
72028;Laerm;59781;52.090;5.030;2023-03-07T15:11:26;45.86;41.85;59.74;;
72028;Laerm;59781;52.090;5.030;2023-03-07T15:14:13;46.04;41.92;68.16;;
72028;Laerm;59781;52.090;5.030;2023-03-07T15:16:52;45.80;41.23;63.19;;
72028;Laerm;59781;52.090;5.030;2023-03-07T15:19:38;46.03;40.93;60.99;;
72028;Laerm;59781;52.090;5.030;2023-03-07T15:22:18;45.83;40.27;66.84;;
72028;Laerm;59781;52.090;5.030;2023-03-07T15:24:50;44.85;41.20;48.44;;
72028;Laerm;59781;52.090;5.030;2023-03-07T15:27:27;45.85;41.60;51.18;;
72028;Laerm;59781;52.090;5.030;2023-03-07T15:29:56;46.40;41.84;53.63;;
72028;Laerm;59781;52.090;5.030;2023-03-07T15:32:35;45.74;42.05;51.29;;
72028;Laerm;59781;52.090;5.030;2023-03-07T15:35:16;45.96;42.22;57.08;;
72028;Laerm;59781;52.090;5.030;2023-03-07T15:37:59;46.00;41.73;54.02;;
72028;Laerm;59781;52.090;5.030;2023-03-07T15:40:34;45.80;41.26;60.43;;
72028;Laerm;59781;52.090;5.030;2023-03-07T15:45:41;46.40;42.69;57.79;;
72028;Laerm;59781;52.090;5.030;2023-03-07T15:48:47;46.36;42.43;64.15;;
72028;Laerm;59781;52.090;5.030;2023-03-07T15:51:22;47.12;43.13;55.44;;
72028;Laerm;59781;52.090;5.030;2023-03-07T15:54:03;46.64;42.00;51.93;;
72028;Laerm;59781;52.090;5.030;2023-03-07T15:56:36;46.51;41.82;61.97;;
72028;Laerm;59781;52.090;5.030;2023-03-07T15:59:13;46.46;42.07;55.18;;